sensor_id;sensor_type;location;lat;lon;timestamp;P1;durP1;ratioP1;P2;durP2;ratioP2
12048;SDS011;6085;49.452;8.502;2022-09-29T00:00:33;6.20;;;5.10;;
12048;SDS011;6085;49.452;8.502;2022-09-29T00:04:35;7.65;;;5.75;;
12048;SDS011;6085;49.452;8.502;2022-09-29T00:08:37;8.77;;;6.50;;
12048;SDS011;6085;49.452;8.502;2022-09-29T00:12:38;8.27;;;5.85;;
12048;SDS011;6085;49.452;8.502;2022-09-29T00:16:42;8.10;;;6.05;;
12048;SDS011;6085;49.452;8.502;2022-09-29T00:20:43;7.90;;;5.63;;
12048;SDS011;6085;49.452;8.502;2022-09-29T00:24:46;7.88;;;5.50;;
12048;SDS011;6085;49.452;8.502;2022-09-29T00:28:48;8.02;;;5.90;;
12048;SDS011;6085;49.452;8.502;2022-09-29T00:32:54;6.88;;;5.78;;
12048;SDS011;6085;49.452;8.502;2022-09-29T00:36:55;9.45;;;5.35;;
12048;SDS011;6085;49.452;8.502;2022-09-29T00:40:57;7.10;;;5.93;;
12048;SDS011;6085;49.452;8.502;2022-09-29T00:45:01;10.00;;;6.47;;
12048;SDS011;6085;49.452;8.502;2022-09-29T00:49:17;17.23;;;9.30;;
12048;SDS011;6085;49.452;8.502;2022-09-29T00:53:23;11.73;;;8.43;;
12048;SDS011;6085;49.452;8.502;2022-09-29T00:57:27;13.70;;;9.20;;
12048;SDS011;6085;49.452;8.502;2022-09-29T01:01:31;16.83;;;10.48;;
12048;SDS011;6085;49.452;8.502;2022-09-29T01:05:35;17.40;;;9.98;;
12048;SDS011;6085;49.452;8.502;2022-09-29T01:09:40;13.38;;;9.02;;
12048;SDS011;6085;49.452;8.502;2022-09-29T01:13:44;14.00;;;8.55;;
12048;SDS011;6085;49.452;8.502;2022-09-29T01:17:47;13.13;;;9.23;;
12048;SDS011;6085;49.452;8.502;2022-09-29T01:21:53;15.02;;;9.50;;
12048;SDS011;6085;49.452;8.502;2022-09-29T01:26:11;20.40;;;11.95;;
12048;SDS011;6085;49.452;8.502;2022-09-29T01:30:38;21.75;;;12.77;;
12048;SDS011;6085;49.452;8.502;2022-09-29T01:34:53;17.90;;;11.68;;
12048;SDS011;6085;49.452;8.502;2022-09-29T01:39:06;19.85;;;11.77;;
12048;SDS011;6085;49.452;8.502;2022-09-29T01:43:15;16.85;;;11.20;;
12048;SDS011;6085;49.452;8.502;2022-09-29T01:47:23;19.73;;;11.65;;
12048;SDS011;6085;49.452;8.502;2022-09-29T01:51:28;20.75;;;12.65;;
12048;SDS011;6085;49.452;8.502;2022-09-29T01:55:37;19.23;;;10.98;;
12048;SDS011;6085;49.452;8.502;2022-09-29T01:59:44;16.55;;;10.82;;
12048;SDS011;6085;49.452;8.502;2022-09-29T02:03:52;16.27;;;10.63;;
12048;SDS011;6085;49.452;8.502;2022-09-29T02:07:59;15.32;;;10.55;;
12048;SDS011;6085;49.452;8.502;2022-09-29T02:12:07;15.95;;;10.38;;
12048;SDS011;6085;49.452;8.502;2022-09-29T02:16:10;16.42;;;9.73;;
12048;SDS011;6085;49.452;8.502;2022-09-29T02:20:17;14.93;;;10.70;;
12048;SDS011;6085;49.452;8.502;2022-09-29T02:24:21;16.63;;;9.57;;
12048;SDS011;6085;49.452;8.502;2022-09-29T02:28:24;17.45;;;11.27;;
12048;SDS011;6085;49.452;8.502;2022-09-29T02:32:26;17.13;;;11.50;;
12048;SDS011;6085;49.452;8.502;2022-09-29T02:36:32;14.38;;;9.30;;
12048;SDS011;6085;49.452;8.502;2022-09-29T02:40:42;16.75;;;10.32;;
12048;SDS011;6085;49.452;8.502;2022-09-29T02:44:57;15.80;;;11.20;;
12048;SDS011;6085;49.452;8.502;2022-09-29T02:49:13;16.13;;;10.35;;
12048;SDS011;6085;49.452;8.502;2022-09-29T02:53:35;17.98;;;11.00;;
12048;SDS011;6085;49.452;8.502;2022-09-29T02:57:47;17.98;;;11.85;;
12048;SDS011;6085;49.452;8.502;2022-09-29T03:01:53;23.88;;;13.75;;
12048;SDS011;6085;49.452;8.502;2022-09-29T03:05:57;25.70;;;14.77;;
12048;SDS011;6085;49.452;8.502;2022-09-29T03:10:00;28.52;;;15.23;;
12048;SDS011;6085;49.452;8.502;2022-09-29T03:14:02;25.08;;;15.18;;
12048;SDS011;6085;49.452;8.502;2022-09-29T03:18:05;26.27;;;15.10;;
12048;SDS011;6085;49.452;8.502;2022-09-29T03:22:07;28.08;;;15.48;;
12048;SDS011;6085;49.452;8.502;2022-09-29T03:26:10;29.08;;;14.73;;
12048;SDS011;6085;49.452;8.502;2022-09-29T03:30:12;30.90;;;15.40;;
12048;SDS011;6085;49.452;8.502;2022-09-29T03:34:14;24.92;;;14.27;;
12048;SDS011;6085;49.452;8.502;2022-09-29T03:38:16;24.02;;;14.40;;
12048;SDS011;6085;49.452;8.502;2022-09-29T03:42:19;24.23;;;14.43;;
12048;SDS011;6085;49.452;8.502;2022-09-29T03:46:23;22.20;;;13.43;;
12048;SDS011;6085;49.452;8.502;2022-09-29T03:50:25;25.25;;;13.57;;
12048;SDS011;6085;49.452;8.502;2022-09-29T03:54:27;24.25;;;12.63;;
12048;SDS011;6085;49.452;8.502;2022-09-29T03:58:30;22.38;;;12.30;;
12048;SDS011;6085;49.452;8.502;2022-09-29T04:02:32;24.15;;;12.30;;
12048;SDS011;6085;49.452;8.502;2022-09-29T04:06:34;21.73;;;12.63;;
12048;SDS011;6085;49.452;8.502;2022-09-29T04:10:37;22.88;;;11.57;;
12048;SDS011;6085;49.452;8.502;2022-09-29T04:14:40;19.23;;;11.95;;
12048;SDS011;6085;49.452;8.502;2022-09-29T04:18:42;19.75;;;11.45;;
12048;SDS011;6085;49.452;8.502;2022-09-29T04:22:44;18.45;;;11.00;;
12048;SDS011;6085;49.452;8.502;2022-09-29T04:26:45;17.80;;;10.10;;
12048;SDS011;6085;49.452;8.502;2022-09-29T04:30:49;17.38;;;9.65;;
12048;SDS011;6085;49.452;8.502;2022-09-29T04:34:50;14.35;;;9.73;;
12048;SDS011;6085;49.452;8.502;2022-09-29T04:38:52;14.30;;;8.55;;
12048;SDS011;6085;49.452;8.502;2022-09-29T04:42:54;15.35;;;9.43;;
12048;SDS011;6085;49.452;8.502;2022-09-29T04:46:57;15.45;;;9.43;;
12048;SDS011;6085;49.452;8.502;2022-09-29T04:50:59;14.38;;;9.25;;
12048;SDS011;6085;49.452;8.502;2022-09-29T04:55:01;17.55;;;9.73;;
12048;SDS011;6085;49.452;8.502;2022-09-29T04:59:04;17.63;;;9.68;;
12048;SDS011;6085;49.452;8.502;2022-09-29T05:03:07;15.63;;;10.57;;
12048;SDS011;6085;49.452;8.502;2022-09-29T05:07:09;19.38;;;10.75;;
12048;SDS011;6085;49.452;8.502;2022-09-29T05:11:11;18.25;;;10.30;;
12048;SDS011;6085;49.452;8.502;2022-09-29T05:15:13;18.08;;;10.57;;
12048;SDS011;6085;49.452;8.502;2022-09-29T05:19:16;19.02;;;10.90;;
12048;SDS011;6085;49.452;8.502;2022-09-29T05:23:18;15.65;;;10.10;;
12048;SDS011;6085;49.452;8.502;2022-09-29T05:27:20;17.98;;;10.48;;
12048;SDS011;6085;49.452;8.502;2022-09-29T05:31:22;17.48;;;9.48;;
12048;SDS011;6085;49.452;8.502;2022-09-29T05:35:25;13.00;;;8.98;;
12048;SDS011;6085;49.452;8.502;2022-09-29T05:39:27;15.35;;;9.60;;
12048;SDS011;6085;49.452;8.502;2022-09-29T05:43:30;14.55;;;8.93;;
12048;SDS011;6085;49.452;8.502;2022-09-29T05:47:32;14.90;;;9.30;;
12048;SDS011;6085;49.452;8.502;2022-09-29T05:51:36;14.82;;;9.43;;
12048;SDS011;6085;49.452;8.502;2022-09-29T05:55:38;14.93;;;9.13;;
12048;SDS011;6085;49.452;8.502;2022-09-29T05:59:39;15.60;;;10.10;;
12048;SDS011;6085;49.452;8.502;2022-09-29T06:03:41;16.33;;;9.10;;
12048;SDS011;6085;49.452;8.502;2022-09-29T06:07:45;13.80;;;9.43;;
12048;SDS011;6085;49.452;8.502;2022-09-29T06:11:47;15.00;;;9.43;;
12048;SDS011;6085;49.452;8.502;2022-09-29T06:15:49;15.73;;;9.82;;
12048;SDS011;6085;49.452;8.502;2022-09-29T06:19:51;13.13;;;8.52;;
12048;SDS011;6085;49.452;8.502;2022-09-29T06:23:54;13.20;;;7.90;;
12048;SDS011;6085;49.452;8.502;2022-09-29T06:27:57;12.73;;;8.77;;
12048;SDS011;6085;49.452;8.502;2022-09-29T06:31:59;11.27;;;7.50;;
12048;SDS011;6085;49.452;8.502;2022-09-29T06:36:02;11.98;;;7.97;;
12048;SDS011;6085;49.452;8.502;2022-09-29T06:40:27;12.43;;;8.82;;
12048;SDS011;6085;49.452;8.502;2022-09-29T06:44:29;13.65;;;8.32;;
12048;SDS011;6085;49.452;8.502;2022-09-29T06:48:31;13.00;;;7.90;;
12048;SDS011;6085;49.452;8.502;2022-09-29T06:52:33;12.05;;;9.00;;
12048;SDS011;6085;49.452;8.502;2022-09-29T06:56:36;11.60;;;7.57;;
12048;SDS011;6085;49.452;8.502;2022-09-29T07:00:38;11.80;;;7.55;;
12048;SDS011;6085;49.452;8.502;2022-09-29T07:04:40;12.23;;;7.22;;
12048;SDS011;6085;49.452;8.502;2022-09-29T07:08:41;10.68;;;7.57;;
12048;SDS011;6085;49.452;8.502;2022-09-29T07:12:45;10.35;;;7.10;;
12048;SDS011;6085;49.452;8.502;2022-09-29T07:16:47;8.63;;;6.55;;
12048;SDS011;6085;49.452;8.502;2022-09-29T07:20:49;14.20;;;10.13;;
12048;SDS011;6085;49.452;8.502;2022-09-29T07:24:51;12.25;;;9.02;;
12048;SDS011;6085;49.452;8.502;2022-09-29T07:28:55;9.77;;;6.55;;
12048;SDS011;6085;49.452;8.502;2022-09-29T07:32:57;9.25;;;6.20;;
12048;SDS011;6085;49.452;8.502;2022-09-29T07:36:59;7.55;;;5.72;;
12048;SDS011;6085;49.452;8.502;2022-09-29T07:41:01;10.32;;;6.93;;
12048;SDS011;6085;49.452;8.502;2022-09-29T07:45:07;9.52;;;6.13;;
12048;SDS011;6085;49.452;8.502;2022-09-29T07:49:09;8.15;;;6.18;;
12048;SDS011;6085;49.452;8.502;2022-09-29T07:53:11;9.32;;;6.25;;
12048;SDS011;6085;49.452;8.502;2022-09-29T07:57:13;8.27;;;6.10;;
12048;SDS011;6085;49.452;8.502;2022-09-29T08:01:17;7.45;;;5.88;;
12048;SDS011;6085;49.452;8.502;2022-09-29T08:05:19;8.68;;;5.90;;
12048;SDS011;6085;49.452;8.502;2022-09-29T08:09:21;9.00;;;6.40;;
12048;SDS011;6085;49.452;8.502;2022-09-29T08:13:23;6.78;;;5.63;;
12048;SDS011;6085;49.452;8.502;2022-09-29T08:17:26;8.10;;;5.72;;
12048;SDS011;6085;49.452;8.502;2022-09-29T08:21:28;7.35;;;5.72;;
12048;SDS011;6085;49.452;8.502;2022-09-29T08:25:35;8.25;;;5.45;;
12048;SDS011;6085;49.452;8.502;2022-09-29T08:29:37;7.85;;;5.65;;
12048;SDS011;6085;49.452;8.502;2022-09-29T08:33:40;5.95;;;5.25;;
12048;SDS011;6085;49.452;8.502;2022-09-29T08:37:42;6.53;;;5.57;;
12048;SDS011;6085;49.452;8.502;2022-09-29T08:41:53;7.43;;;5.65;;
12048;SDS011;6085;49.452;8.502;2022-09-29T08:46:01;7.70;;;5.70;;
12048;SDS011;6085;49.452;8.502;2022-09-29T08:50:10;7.93;;;5.43;;
12048;SDS011;6085;49.452;8.502;2022-09-29T08:54:16;7.40;;;5.57;;
12048;SDS011;6085;49.452;8.502;2022-09-29T08:58:24;6.90;;;4.75;;
12048;SDS011;6085;49.452;8.502;2022-09-29T09:02:39;6.38;;;4.93;;
12048;SDS011;6085;49.452;8.502;2022-09-29T09:07:00;6.30;;;5.30;;
12048;SDS011;6085;49.452;8.502;2022-09-29T09:11:15;7.13;;;5.00;;
12048;SDS011;6085;49.452;8.502;2022-09-29T09:15:40;5.80;;;4.93;;
12048;SDS011;6085;49.452;8.502;2022-09-29T09:19:56;5.00;;;3.95;;
12048;SDS011;6085;49.452;8.502;2022-09-29T09:24:19;7.13;;;4.30;;
12048;SDS011;6085;49.452;8.502;2022-09-29T09:28:29;6.85;;;4.10;;
12048;SDS011;6085;49.452;8.502;2022-09-29T09:32:40;5.93;;;4.03;;
12048;SDS011;6085;49.452;8.502;2022-09-29T09:36:49;5.03;;;3.45;;
12048;SDS011;6085;49.452;8.502;2022-09-29T09:40:56;5.30;;;4.57;;
12048;SDS011;6085;49.452;8.502;2022-09-29T09:45:02;6.30;;;4.25;;
12048;SDS011;6085;49.452;8.502;2022-09-29T09:49:12;6.18;;;4.47;;
12048;SDS011;6085;49.452;8.502;2022-09-29T09:53:18;7.13;;;4.03;;
12048;SDS011;6085;49.452;8.502;2022-09-29T09:57:34;4.88;;;4.00;;
12048;SDS011;6085;49.452;8.502;2022-09-29T10:01:53;3.90;;;3.47;;
12048;SDS011;6085;49.452;8.502;2022-09-29T10:05:55;5.65;;;3.97;;
12048;SDS011;6085;49.452;8.502;2022-09-29T10:09:58;7.15;;;3.85;;
12048;SDS011;6085;49.452;8.502;2022-09-29T10:14:10;4.50;;;3.33;;
12048;SDS011;6085;49.452;8.502;2022-09-29T10:18:15;4.30;;;3.83;;
12048;SDS011;6085;49.452;8.502;2022-09-29T10:22:20;5.38;;;3.70;;
12048;SDS011;6085;49.452;8.502;2022-09-29T10:26:23;7.30;;;3.72;;
12048;SDS011;6085;49.452;8.502;2022-09-29T10:30:32;4.78;;;3.70;;
12048;SDS011;6085;49.452;8.502;2022-09-29T10:34:35;5.05;;;3.70;;
12048;SDS011;6085;49.452;8.502;2022-09-29T10:38:40;5.03;;;3.58;;
12048;SDS011;6085;49.452;8.502;2022-09-29T10:42:47;4.97;;;3.50;;
12048;SDS011;6085;49.452;8.502;2022-09-29T10:46:53;3.65;;;3.13;;
12048;SDS011;6085;49.452;8.502;2022-09-29T10:50:57;5.60;;;2.88;;
12048;SDS011;6085;49.452;8.502;2022-09-29T10:55:00;7.55;;;3.60;;
12048;SDS011;6085;49.452;8.502;2022-09-29T10:59:04;5.20;;;2.88;;
12048;SDS011;6085;49.452;8.502;2022-09-29T11:03:07;5.85;;;3.25;;
12048;SDS011;6085;49.452;8.502;2022-09-29T11:07:18;5.05;;;2.92;;
12048;SDS011;6085;49.452;8.502;2022-09-29T11:11:20;3.97;;;2.47;;
12048;SDS011;6085;49.452;8.502;2022-09-29T11:15:27;3.80;;;2.95;;
12048;SDS011;6085;49.452;8.502;2022-09-29T11:19:40;4.90;;;2.47;;
12048;SDS011;6085;49.452;8.502;2022-09-29T11:23:42;3.40;;;2.72;;
12048;SDS011;6085;49.452;8.502;2022-09-29T11:27:57;4.68;;;2.35;;
12048;SDS011;6085;49.452;8.502;2022-09-29T11:32:20;3.92;;;2.80;;
12048;SDS011;6085;49.452;8.502;2022-09-29T11:36:34;6.53;;;3.03;;
12048;SDS011;6085;49.452;8.502;2022-09-29T11:40:46;4.07;;;2.35;;
12048;SDS011;6085;49.452;8.502;2022-09-29T11:45:01;3.78;;;2.38;;
12048;SDS011;6085;49.452;8.502;2022-09-29T11:49:09;3.92;;;2.47;;
12048;SDS011;6085;49.452;8.502;2022-09-29T11:53:30;3.38;;;1.88;;
12048;SDS011;6085;49.452;8.502;2022-09-29T11:57:43;4.90;;;2.15;;
12048;SDS011;6085;49.452;8.502;2022-09-29T12:02:01;3.58;;;1.80;;
12048;SDS011;6085;49.452;8.502;2022-09-29T12:06:31;4.25;;;1.80;;
12048;SDS011;6085;49.452;8.502;2022-09-29T12:10:51;3.08;;;1.77;;
12048;SDS011;6085;49.452;8.502;2022-09-29T12:15:19;4.55;;;2.10;;
12048;SDS011;6085;49.452;8.502;2022-09-29T12:19:27;2.47;;;1.70;;
12048;SDS011;6085;49.452;8.502;2022-09-29T12:23:33;2.38;;;1.63;;
12048;SDS011;6085;49.452;8.502;2022-09-29T12:27:39;2.05;;;1.48;;
12048;SDS011;6085;49.452;8.502;2022-09-29T12:31:45;3.45;;;1.60;;
12048;SDS011;6085;49.452;8.502;2022-09-29T12:35:51;1.55;;;1.40;;
12048;SDS011;6085;49.452;8.502;2022-09-29T12:39:58;1.92;;;1.50;;
12048;SDS011;6085;49.452;8.502;2022-09-29T12:44:07;2.22;;;1.60;;
12048;SDS011;6085;49.452;8.502;2022-09-29T12:48:22;1.63;;;1.02;;
12048;SDS011;6085;49.452;8.502;2022-09-29T12:52:39;2.63;;;1.75;;
12048;SDS011;6085;49.452;8.502;2022-09-29T12:56:50;3.03;;;1.45;;
12048;SDS011;6085;49.452;8.502;2022-09-29T13:01:04;2.65;;;1.50;;
12048;SDS011;6085;49.452;8.502;2022-09-29T13:05:23;2.00;;;1.40;;
12048;SDS011;6085;49.452;8.502;2022-09-29T13:09:47;2.47;;;1.23;;
12048;SDS011;6085;49.452;8.502;2022-09-29T13:14:13;3.08;;;1.30;;
12048;SDS011;6085;49.452;8.502;2022-09-29T13:23:54;2.92;;;1.58;;
12048;SDS011;6085;49.452;8.502;2022-09-29T13:28:21;2.60;;;1.52;;
12048;SDS011;6085;49.452;8.502;2022-09-29T13:32:28;2.17;;;1.48;;
12048;SDS011;6085;49.452;8.502;2022-09-29T13:36:31;2.75;;;1.67;;
12048;SDS011;6085;49.452;8.502;2022-09-29T13:40:39;2.67;;;1.50;;
12048;SDS011;6085;49.452;8.502;2022-09-29T13:49:41;2.30;;;1.55;;
12048;SDS011;6085;49.452;8.502;2022-09-29T13:53:43;3.40;;;1.92;;
12048;SDS011;6085;49.452;8.502;2022-09-29T13:57:50;2.58;;;1.20;;
12048;SDS011;6085;49.452;8.502;2022-09-29T14:01:52;1.83;;;1.42;;
12048;SDS011;6085;49.452;8.502;2022-09-29T14:05:55;3.95;;;1.50;;
12048;SDS011;6085;49.452;8.502;2022-09-29T14:10:12;4.38;;;1.52;;
12048;SDS011;6085;49.452;8.502;2022-09-29T14:14:25;2.60;;;1.77;;
12048;SDS011;6085;49.452;8.502;2022-09-29T14:18:32;3.35;;;1.73;;
12048;SDS011;6085;49.452;8.502;2022-09-29T14:22:52;2.50;;;1.40;;
12048;SDS011;6085;49.452;8.502;2022-09-29T14:27:12;3.80;;;1.70;;
12048;SDS011;6085;49.452;8.502;2022-09-29T14:31:23;1.77;;;1.50;;
12048;SDS011;6085;49.452;8.502;2022-09-29T14:35:28;2.65;;;1.55;;
12048;SDS011;6085;49.452;8.502;2022-09-29T14:39:32;2.70;;;1.63;;
12048;SDS011;6085;49.452;8.502;2022-09-29T14:43:36;1.52;;;1.35;;
12048;SDS011;6085;49.452;8.502;2022-09-29T14:47:42;2.53;;;1.60;;
12048;SDS011;6085;49.452;8.502;2022-09-29T14:52:07;1.80;;;1.40;;
12048;SDS011;6085;49.452;8.502;2022-09-29T14:56:22;4.43;;;1.75;;
12048;SDS011;6085;49.452;8.502;2022-09-29T15:00:36;1.98;;;1.52;;
12048;SDS011;6085;49.452;8.502;2022-09-29T15:04:53;1.80;;;1.60;;
12048;SDS011;6085;49.452;8.502;2022-09-29T15:08:59;2.25;;;1.50;;
12048;SDS011;6085;49.452;8.502;2022-09-29T15:13:14;4.88;;;1.55;;
12048;SDS011;6085;49.452;8.502;2022-09-29T15:17:23;3.80;;;1.70;;
12048;SDS011;6085;49.452;8.502;2022-09-29T15:21:38;3.00;;;1.80;;
12048;SDS011;6085;49.452;8.502;2022-09-29T15:25:47;2.65;;;1.60;;
12048;SDS011;6085;49.452;8.502;2022-09-29T15:29:53;4.03;;;1.90;;
12048;SDS011;6085;49.452;8.502;2022-09-29T15:33:56;1.65;;;1.55;;
12048;SDS011;6085;49.452;8.502;2022-09-29T15:38:14;3.58;;;1.60;;
12048;SDS011;6085;49.452;8.502;2022-09-29T15:42:19;3.00;;;1.75;;
12048;SDS011;6085;49.452;8.502;2022-09-29T15:46:23;3.17;;;2.05;;
12048;SDS011;6085;49.452;8.502;2022-09-29T15:50:26;2.67;;;1.75;;
12048;SDS011;6085;49.452;8.502;2022-09-29T15:54:33;4.30;;;1.85;;
12048;SDS011;6085;49.452;8.502;2022-09-29T15:58:42;2.03;;;1.77;;
12048;SDS011;6085;49.452;8.502;2022-09-29T16:02:48;4.53;;;1.80;;
12048;SDS011;6085;49.452;8.502;2022-09-29T16:06:52;2.58;;;1.65;;
12048;SDS011;6085;49.452;8.502;2022-09-29T16:10:56;2.60;;;1.85;;
12048;SDS011;6085;49.452;8.502;2022-09-29T16:15:00;3.35;;;1.60;;
12048;SDS011;6085;49.452;8.502;2022-09-29T16:19:05;1.88;;;1.50;;
12048;SDS011;6085;49.452;8.502;2022-09-29T16:23:16;2.30;;;1.63;;
12048;SDS011;6085;49.452;8.502;2022-09-29T16:31:52;3.28;;;1.63;;
12048;SDS011;6085;49.452;8.502;2022-09-29T16:35:56;3.40;;;1.58;;
12048;SDS011;6085;49.452;8.502;2022-09-29T16:40:03;3.50;;;2.35;;
12048;SDS011;6085;49.452;8.502;2022-09-29T16:44:09;5.40;;;3.10;;
12048;SDS011;6085;49.452;8.502;2022-09-29T16:48:15;5.78;;;3.53;;
12048;SDS011;6085;49.452;8.502;2022-09-29T16:52:19;4.47;;;3.22;;
12048;SDS011;6085;49.452;8.502;2022-09-29T16:56:26;3.88;;;3.40;;
12048;SDS011;6085;49.452;8.502;2022-09-29T17:00:32;8.88;;;5.10;;
12048;SDS011;6085;49.452;8.502;2022-09-29T17:04:35;6.85;;;5.43;;
12048;SDS011;6085;49.452;8.502;2022-09-29T17:08:37;4.90;;;4.35;;
12048;SDS011;6085;49.452;8.502;2022-09-29T17:12:42;8.32;;;5.03;;
12048;SDS011;6085;49.452;8.502;2022-09-29T17:16:45;5.28;;;4.30;;
12048;SDS011;6085;49.452;8.502;2022-09-29T17:20:48;5.75;;;4.22;;
12048;SDS011;6085;49.452;8.502;2022-09-29T17:24:50;5.40;;;3.90;;
12048;SDS011;6085;49.452;8.502;2022-09-29T17:28:52;5.45;;;4.57;;
12048;SDS011;6085;49.452;8.502;2022-09-29T17:32:56;8.48;;;6.72;;
12048;SDS011;6085;49.452;8.502;2022-09-29T17:36:58;6.35;;;4.60;;
12048;SDS011;6085;49.452;8.502;2022-09-29T17:41:02;4.45;;;3.50;;
12048;SDS011;6085;49.452;8.502;2022-09-29T17:45:06;7.00;;;4.00;;
12048;SDS011;6085;49.452;8.502;2022-09-29T17:49:10;5.05;;;3.72;;
12048;SDS011;6085;49.452;8.502;2022-09-29T17:53:13;6.32;;;4.40;;
12048;SDS011;6085;49.452;8.502;2022-09-29T17:57:18;6.30;;;5.32;;
12048;SDS011;6085;49.452;8.502;2022-09-29T18:01:22;12.85;;;8.45;;
12048;SDS011;6085;49.452;8.502;2022-09-29T18:05:27;7.82;;;4.93;;
12048;SDS011;6085;49.452;8.502;2022-09-29T18:09:30;9.70;;;6.47;;
12048;SDS011;6085;49.452;8.502;2022-09-29T18:13:31;10.30;;;9.25;;
12048;SDS011;6085;49.452;8.502;2022-09-29T18:17:33;23.77;;;18.15;;
12048;SDS011;6085;49.452;8.502;2022-09-29T18:21:36;11.48;;;9.57;;
12048;SDS011;6085;49.452;8.502;2022-09-29T18:25:39;6.93;;;5.63;;
12048;SDS011;6085;49.452;8.502;2022-09-29T18:29:41;6.95;;;4.82;;
12048;SDS011;6085;49.452;8.502;2022-09-29T18:33:43;5.90;;;4.35;;
12048;SDS011;6085;49.452;8.502;2022-09-29T18:37:46;5.55;;;3.97;;
12048;SDS011;6085;49.452;8.502;2022-09-29T18:41:48;4.85;;;4.00;;
12048;SDS011;6085;49.452;8.502;2022-09-29T18:45:50;5.35;;;3.97;;
12048;SDS011;6085;49.452;8.502;2022-09-29T18:49:53;5.70;;;4.07;;
12048;SDS011;6085;49.452;8.502;2022-09-29T18:53:56;5.60;;;3.80;;
12048;SDS011;6085;49.452;8.502;2022-09-29T18:57:59;6.22;;;4.60;;
12048;SDS011;6085;49.452;8.502;2022-09-29T19:02:01;5.13;;;4.07;;
12048;SDS011;6085;49.452;8.502;2022-09-29T19:06:03;8.80;;;4.70;;
12048;SDS011;6085;49.452;8.502;2022-09-29T19:10:07;5.22;;;4.28;;
12048;SDS011;6085;49.452;8.502;2022-09-29T19:14:09;4.97;;;3.80;;
12048;SDS011;6085;49.452;8.502;2022-09-29T19:18:15;5.18;;;3.05;;
12048;SDS011;6085;49.452;8.502;2022-09-29T19:22:22;3.78;;;3.40;;
12048;SDS011;6085;49.452;8.502;2022-09-29T19:26:26;2.28;;;2.08;;
12048;SDS011;6085;49.452;8.502;2022-09-29T19:30:30;3.10;;;2.40;;
12048;SDS011;6085;49.452;8.502;2022-09-29T19:34:32;7.28;;;6.15;;
12048;SDS011;6085;49.452;8.502;2022-09-29T19:38:35;2.92;;;2.63;;
12048;SDS011;6085;49.452;8.502;2022-09-29T19:42:39;4.75;;;3.40;;
12048;SDS011;6085;49.452;8.502;2022-09-29T19:46:41;4.28;;;3.53;;
12048;SDS011;6085;49.452;8.502;2022-09-29T19:50:43;4.00;;;3.60;;
12048;SDS011;6085;49.452;8.502;2022-09-29T19:55:02;4.30;;;3.70;;
12048;SDS011;6085;49.452;8.502;2022-09-29T19:59:11;5.75;;;3.45;;
12048;SDS011;6085;49.452;8.502;2022-09-29T20:03:15;5.13;;;3.47;;
12048;SDS011;6085;49.452;8.502;2022-09-29T20:07:17;4.18;;;3.42;;
12048;SDS011;6085;49.452;8.502;2022-09-29T20:11:19;4.88;;;3.50;;
12048;SDS011;6085;49.452;8.502;2022-09-29T20:15:23;4.03;;;3.42;;
12048;SDS011;6085;49.452;8.502;2022-09-29T20:19:25;4.22;;;3.42;;
12048;SDS011;6085;49.452;8.502;2022-09-29T20:23:30;3.50;;;3.15;;
12048;SDS011;6085;49.452;8.502;2022-09-29T20:27:32;4.88;;;3.38;;
12048;SDS011;6085;49.452;8.502;2022-09-29T20:31:35;4.97;;;3.35;;
12048;SDS011;6085;49.452;8.502;2022-09-29T20:35:37;4.90;;;3.63;;
12048;SDS011;6085;49.452;8.502;2022-09-29T20:39:40;6.53;;;4.35;;
12048;SDS011;6085;49.452;8.502;2022-09-29T20:43:44;6.15;;;4.22;;
12048;SDS011;6085;49.452;8.502;2022-09-29T20:47:49;7.35;;;3.92;;
12048;SDS011;6085;49.452;8.502;2022-09-29T20:51:51;4.07;;;3.67;;
12048;SDS011;6085;49.452;8.502;2022-09-29T20:56:00;5.32;;;3.90;;
12048;SDS011;6085;49.452;8.502;2022-09-29T21:00:03;7.20;;;4.00;;
12048;SDS011;6085;49.452;8.502;2022-09-29T21:04:10;5.68;;;4.22;;
12048;SDS011;6085;49.452;8.502;2022-09-29T21:08:12;6.50;;;4.28;;
12048;SDS011;6085;49.452;8.502;2022-09-29T21:12:14;5.20;;;3.92;;
12048;SDS011;6085;49.452;8.502;2022-09-29T21:16:17;5.90;;;4.50;;
12048;SDS011;6085;49.452;8.502;2022-09-29T21:20:21;6.28;;;5.38;;
12048;SDS011;6085;49.452;8.502;2022-09-29T21:24:23;7.65;;;5.43;;
12048;SDS011;6085;49.452;8.502;2022-09-29T21:28:25;7.75;;;5.40;;
12048;SDS011;6085;49.452;8.502;2022-09-29T21:32:27;6.50;;;4.88;;
12048;SDS011;6085;49.452;8.502;2022-09-29T21:36:32;6.93;;;5.00;;
12048;SDS011;6085;49.452;8.502;2022-09-29T21:40:35;7.45;;;4.68;;
12048;SDS011;6085;49.452;8.502;2022-09-29T21:44:37;6.10;;;5.50;;
12048;SDS011;6085;49.452;8.502;2022-09-29T21:48:39;6.28;;;4.68;;
12048;SDS011;6085;49.452;8.502;2022-09-29T21:52:43;7.70;;;5.50;;
12048;SDS011;6085;49.452;8.502;2022-09-29T21:56:45;5.32;;;4.75;;
12048;SDS011;6085;49.452;8.502;2022-09-29T22:00:48;6.20;;;4.40;;
12048;SDS011;6085;49.452;8.502;2022-09-29T22:04:50;5.47;;;4.65;;
12048;SDS011;6085;49.452;8.502;2022-09-29T22:08:54;5.30;;;4.50;;
12048;SDS011;6085;49.452;8.502;2022-09-29T22:12:57;5.63;;;4.35;;
12048;SDS011;6085;49.452;8.502;2022-09-29T22:16:59;4.40;;;3.95;;
12048;SDS011;6085;49.452;8.502;2022-09-29T22:21:02;5.28;;;4.72;;
12048;SDS011;6085;49.452;8.502;2022-09-29T22:25:07;4.65;;;3.92;;
12048;SDS011;6085;49.452;8.502;2022-09-29T22:29:09;5.53;;;4.53;;
12048;SDS011;6085;49.452;8.502;2022-09-29T22:33:12;5.18;;;4.30;;
12048;SDS011;6085;49.452;8.502;2022-09-29T22:37:14;4.85;;;3.95;;
12048;SDS011;6085;49.452;8.502;2022-09-29T22:41:18;4.70;;;4.03;;
12048;SDS011;6085;49.452;8.502;2022-09-29T22:45:23;4.07;;;3.63;;
12048;SDS011;6085;49.452;8.502;2022-09-29T22:49:24;4.78;;;4.00;;
12048;SDS011;6085;49.452;8.502;2022-09-29T22:53:26;4.32;;;3.92;;
12048;SDS011;6085;49.452;8.502;2022-09-29T22:57:32;4.88;;;4.38;;
12048;SDS011;6085;49.452;8.502;2022-09-29T23:01:34;4.43;;;4.00;;
12048;SDS011;6085;49.452;8.502;2022-09-29T23:05:36;6.75;;;4.70;;
12048;SDS011;6085;49.452;8.502;2022-09-29T23:09:39;4.28;;;3.83;;
12048;SDS011;6085;49.452;8.502;2022-09-29T23:13:43;4.25;;;3.85;;
12048;SDS011;6085;49.452;8.502;2022-09-29T23:17:45;4.68;;;4.28;;
12048;SDS011;6085;49.452;8.502;2022-09-29T23:21:47;5.43;;;3.72;;
12048;SDS011;6085;49.452;8.502;2022-09-29T23:25:49;5.25;;;3.97;;
12048;SDS011;6085;49.452;8.502;2022-09-29T23:29:52;5.95;;;4.00;;
12048;SDS011;6085;49.452;8.502;2022-09-29T23:33:54;4.90;;;3.92;;
12048;SDS011;6085;49.452;8.502;2022-09-29T23:38:00;4.15;;;3.67;;
12048;SDS011;6085;49.452;8.502;2022-09-29T23:42:19;5.60;;;4.20;;
12048;SDS011;6085;49.452;8.502;2022-09-29T23:46:22;5.13;;;4.40;;
12048;SDS011;6085;49.452;8.502;2022-09-29T23:50:25;5.35;;;3.80;;
12048;SDS011;6085;49.452;8.502;2022-09-29T23:54:28;4.78;;;4.20;;
12048;SDS011;6085;49.452;8.502;2022-09-29T23:58:30;4.95;;;4.25;;
